Kamikawa Maru — JG5687 — position and weather

sailwx.info

Track history (hours):
 
Tides and Currents Weather Stations Pressure Air Temp Water Temp Dewpoint Dewpoint Depression Visibility Wind Speed Wind Dir Waves Ship Positions

Kamikawa Maru

Last reported at 2018-Apr-24 10:30 UTC. Time now 2018-Apr-24 10:52 UTC.
Position N 35°26' E 139°46'.

Length 162 m; draft 6.8 m.

Type: Cargo ship. MMSI: 431101012.

Date/timePositionNaut miles runAvg speedWind from/ knotsBaromVisibWave heightAir tempDewpointWater temp
2018-Apr-24 10:30N 35°26' E 139°46'815.6
2018-Apr-24 10:00N 35°33' E 139°50'511.1
2018-Apr-24 09:30N 35°38' E 139°46'0 0.2
2018-Apr-24 09:00N 35°38' E 139°46'0 0.0
2018-Apr-24 07:51N 35°38' E 139°46'0 0.1
2018-Apr-24 07:30N 35°38' E 139°46'0 0.0
2018-Apr-24 06:54N 35°38' E 139°46'0 0.0
2018-Apr-23 23:45N 35°38' E 139°46'0 0.5
2018-Apr-23 23:30N 35°38' E 139°46'611.2
2018-Apr-23 23:01N 35°33' E 139°50'612.8
2018-Apr-23 22:31N 35°27' E 139°50'714.0
2018-Apr-23 22:01N 35°21' E 139°45'611.8
2018-Apr-23 21:31N 35°15' E 139°47'714.2
2018-Apr-23 21:00N 35°08' E 139°46'917.5
2018-Apr-23 20:30N 35°01' E 139°40'917.9
2018-Apr-23 20:00N 34°54' E 139°33'1017.9
2018-Apr-23 19:27N 34°51' E 139°22'919.4
2018-Apr-23 19:00N 34°44' E 139°16'1019.4
2018-Apr-23 18:29N 34°35' E 139°09'917.8
2018-Apr-23 18:00N 34°31' E 139°00'1218.5
2018-Apr-23 17:23N 34°30' E 138°46'718.8
2018-Apr-23 17:00N 34°29' E 138°38'918.8
2018-Apr-23 16:30N 34°29' E 138°26'1018.8
2018-Apr-23 16:00N 34°29' E 138°15'1019.0
2018-Apr-23 15:27N 34°29' E 138°02'1019.2
2018-Apr-23 14:57N 34°29' E 137°50'2119.6
2018-Apr-23 13:51N 34°31' E 137°25'819.6
2018-Apr-23 13:27N 34°32' E 137°15'2016.4
2018-Apr-23 12:16N 34°38' E 136°53'518.8
2018-Apr-23 12:00N 34°41' E 136°49'917.1
2018-Apr-23 11:30N 34°48' E 136°42'1 0.8
2018-Apr-23 10:52N 34°48' E 136°42'1 1.5
2018-Apr-23 10:28N 34°47' E 136°43'612.3
2018-Apr-23 10:00N 34°53' E 136°43'816.9
2018-Apr-23 09:30N 34°60' E 136°49'510.5
2018-Apr-23 09:01N 35°05' E 136°52'0 0.1
2018-Apr-23 08:28N 35°05' E 136°52'0 0.0
2018-Apr-23 07:55N 35°05' E 136°52'0 0.0
2018-Apr-23 07:28N 35°05' E 136°52'0 0.0
2018-Apr-23 06:55N 35°05' E 136°52'0 0.0
2018-Apr-23 06:28N 35°05' E 136°52'0 0.0
2018-Apr-23 05:58N 35°05' E 136°52'0 0.0
2018-Apr-23 05:28N 35°05' E 136°52'0 0.0
2018-Apr-23 04:55N 35°05' E 136°52'0 0.0
2018-Apr-23 04:25N 35°05' E 136°52'0 0.0
2018-Apr-23 03:58N 35°05' E 136°52'0 0.0
2018-Apr-23 03:28N 35°05' E 136°52'0 0.0
2018-Apr-23 02:55N 35°05' E 136°52'0 0.0
2018-Apr-23 02:28N 35°05' E 136°52'0 0.0
2018-Apr-23 01:58N 35°05' E 136°52'0 0.0
2018-Apr-23 01:28N 35°05' E 136°52'0 0.0
2018-Apr-23 00:58N 35°05' E 136°52'0 0.0
2018-Apr-23 00:25N 35°05' E 136°52'0 0.0
2018-Apr-22 23:55N 35°05' E 136°52'0 0.0
2018-Apr-22 23:25N 35°05' E 136°52'0 0.3
2018-Apr-22 23:00N 35°05' E 136°52'5 9.6
2018-Apr-22 22:30N 35°00' E 136°50'612.9
2018-Apr-22 22:00N 34°54' E 136°46'510.0
2018-Apr-22 21:29N 34°50' E 136°43'0 0.1
2018-Apr-22 20:59N 34°49' E 136°43'0 0.0
2018-Apr-22 20:29N 34°49' E 136°43'0 0.0
2018-Apr-22 19:58N 34°49' E 136°43'0 0.0
2018-Apr-22 19:29N 34°49' E 136°43'0 0.0
2018-Apr-22 18:58N 34°49' E 136°43'0 0.1
2018-Apr-22 18:29N 34°49' E 136°44'0 0.0
2018-Apr-22 17:59N 34°49' E 136°44'0 0.1
2018-Apr-22 17:28N 34°49' E 136°43'1 1.9
2018-Apr-22 17:00N 34°49' E 136°44'1019.2
2018-Apr-22 16:30N 34°41' E 136°51'917.7
2018-Apr-22 16:00N 34°35' E 136°59'612.4
2018-Apr-22 15:29N 34°32' E 137°06'918.8
2018-Apr-22 15:00N 34°31' E 137°17'1619.3
2018-Apr-22 14:12N 34°31' E 137°36'419.5
2018-Apr-22 13:59N 34°31' E 137°40'1019.0
2018-Apr-22 13:28N 34°31' E 137°53'919.0
2018-Apr-22 13:00N 34°31' E 138°03'918.9
2018-Apr-22 12:30N 34°31' E 138°15'1019.4
2018-Apr-22 11:59N 34°31' E 138°27'1018.9
2018-Apr-22 11:28N 34°32' E 138°39'918.6
2018-Apr-22 10:59N 34°32' E 138°50'817.5
2018-Apr-22 10:30N 34°33' E 138°60'1118.3
2018-Apr-22 09:56N 34°40' E 139°09'717.8
2018-Apr-22 09:30N 34°46' E 139°15'917.1
2018-Apr-22 09:00N 34°52' E 139°22'917.0
2018-Apr-22 08:30N 34°58' E 139°30'918.3
2018-Apr-22 08:00N 35°04' E 139°38'917.5
2018-Apr-22 07:30N 35°10' E 139°45'713.2
2018-Apr-22 07:00N 35°17' E 139°45'714.1
2018-Apr-22 06:30N 35°24' E 139°43'919.0
2018-Apr-22 06:00N 35°30' E 139°51'815.7
2018-Apr-22 05:31N 35°37' E 139°46'1 2.5
2018-Apr-22 05:00N 35°38' E 139°46'0 0.0
2018-Apr-22 04:27N 35°38' E 139°46'0 0.0
2018-Apr-22 03:15N 35°38' E 139°46'0 0.1
2018-Apr-22 02:51N 35°38' E 139°46'0 0.1
2018-Apr-22 02:27N 35°38' E 139°46'0 0.0
2018-Apr-22 01:45N 35°38' E 139°46'0 0.0
2018-Apr-22 01:27N 35°38' E 139°46'0 0.0
2018-Apr-22 00:57N 35°38' E 139°46'0 0.0
2018-Apr-21 23:54N 35°38' E 139°46'0 0.3
2018-Apr-21 23:30N 35°38' E 139°46'5 9.6
2018-Apr-21 23:00N 35°34' E 139°49'611.9
2018-Apr-21 22:30N 35°28' E 139°51'713.9
2018-Apr-21 22:00N 35°23' E 139°46'611.4
2018-Apr-21 21:31N 35°17' E 139°46'612.7
2018-Apr-21 21:00N 35°11' E 139°47'917.2
2018-Apr-21 20:30N 35°03' E 139°44'816.0
2018-Apr-21 20:00N 34°55' E 139°43'915.6
2018-Apr-21 19:26N 34°52' E 139°53'817.6
2018-Apr-21 19:01N 34°55' E 140°02'1017.2
2018-Apr-21 18:27N 34°59' E 140°12'817.0
2018-Apr-21 18:00N 35°03' E 140°20'1116.4
2018-Apr-21 17:19N 35°09' E 140°31'1116.3
2018-Apr-21 16:38N 35°19' E 140°39'217.1
2018-Apr-21 16:30N 35°21' E 140°40'  
2018-Apr-18 15:14N 40°25' E 141°57'719.1
2018-Apr-18 14:51N 40°18' E 141°58'819.1
2018-Apr-18 14:26N 40°10' E 142°01'32313.2
2018-Apr-17 13:59N 34°59' E 140°12'1019.7
2018-Apr-17 13:29N 34°54' E 140°02'1018.5
2018-Apr-17 12:57N 34°52' E 139°50'817.9
2018-Apr-17 12:30N 34°58' E 139°43'1019.3
2018-Apr-17 12:00N 35°07' E 139°45'816.3
2018-Apr-17 11:30N 35°15' E 139°46'713.1
2018-Apr-17 11:00N 35°21' E 139°42'918.2
2018-Apr-17 10:30N 35°28' E 139°49'714.6
2018-Apr-17 10:00N 35°35' E 139°47'3 4.8
2018-Apr-17 09:23N 35°38' E 139°46'0 0.0
2018-Apr-17 08:53N 35°38' E 139°46'0 0.0
2018-Apr-17 08:11N 35°38' E 139°46'0 0.0
2018-Apr-17 07:53N 35°38' E 139°46'0 0.0
2018-Apr-17 07:17N 35°38' E 139°46'0 0.0
2018-Apr-17 06:53N 35°38' E 139°46'0 0.0
2018-Apr-17 06:29N 35°38' E 139°46'0 0.0
2018-Apr-17 05:53N 35°38' E 139°46'0 0.0
2018-Apr-17 05:29N 35°38' E 139°46'0 0.0
2018-Apr-17 04:59N 35°38' E 139°46'0 0.0
2018-Apr-17 04:29N 35°38' E 139°46'0 0.0
2018-Apr-17 03:47N 35°38' E 139°46'0 0.1
2018-Apr-17 03:23N 35°38' E 139°46'0 0.1
2018-Apr-17 02:59N 35°38' E 139°46'0 0.1
2018-Apr-17 02:29N 35°38' E 139°46'0 0.1
2018-Apr-17 01:35N 35°38' E 139°46'0 0.1
2018-Apr-17 01:05N 35°38' E 139°46'0 0.0
2018-Apr-17 00:05N 35°38' E 139°46'0 0.5
2018-Apr-16 23:59N 35°38' E 139°46'0 0.5
2018-Apr-16 23:30N 35°38' E 139°46'611.3
2018-Apr-16 23:00N 35°33' E 139°50'714.3
2018-Apr-16 22:30N 35°26' E 139°49'713.5
2018-Apr-16 22:00N 35°20' E 139°45'611.5
2018-Apr-16 21:30N 35°15' E 139°47'714.7
2018-Apr-16 21:00N 35°08' E 139°44'815.4
2018-Apr-16 20:31N 35°03' E 139°38'918.1
2018-Apr-16 20:00N 34°56' E 139°30'1018.0
2018-Apr-16 19:28N 34°50' E 139°21'1018.5
2018-Apr-16 18:57N 34°43' E 139°13'818.2
2018-Apr-16 18:31N 34°37' E 139°06'917.4
2018-Apr-16 18:00N 34°31' E 138°58'1017.0
2018-Apr-16 17:24N 34°28' E 138°46'717.9
2018-Apr-16 16:59N 34°27' E 138°37'917.7
2018-Apr-16 16:30N 34°27' E 138°27'917.9
2018-Apr-16 16:00N 34°27' E 138°16'1618.4
2018-Apr-16 15:08N 34°29' E 137°57'318.5
2018-Apr-16 15:00N 34°29' E 137°54'2818.8
2018-Apr-16 13:29N 34°29' E 137°19'1119.7
2018-Apr-16 12:57N 34°30' E 137°06'716.7
2018-Apr-16 12:30N 34°34' E 136°59'1019.4
2018-Apr-16 12:00N 34°40' E 136°50'1019.6
2018-Apr-16 11:30N 34°49' E 136°45'2 3.9
2018-Apr-16 10:59N 34°51' E 136°44'0 0.0
2018-Apr-16 10:29N 34°51' E 136°44'0 0.0
2018-Apr-16 09:59N 34°51' E 136°44'0 0.0
2018-Apr-16 09:29N 34°51' E 136°44'0 0.0
2018-Apr-16 08:59N 34°51' E 136°44'0 0.2
2018-Apr-16 08:30N 34°51' E 136°44'816.1
2018-Apr-16 08:00N 34°58' E 136°48'714.4
2018-Apr-16 07:31N 35°04' E 136°52'0 0.3
2018-Apr-16 06:57N 35°05' E 136°52'0 0.0
2018-Apr-16 06:27N 35°05' E 136°52'0 0.0
2018-Apr-16 06:00N 35°05' E 136°52'0 0.0
2018-Apr-16 05:27N 35°05' E 136°52'0 0.0
2018-Apr-16 04:57N 35°05' E 136°52'0 0.0
2018-Apr-16 04:27N 35°05' E 136°52'0 0.0
2018-Apr-16 03:57N 35°05' E 136°52'0 0.0
2018-Apr-16 03:27N 35°05' E 136°52'0 0.0
2018-Apr-16 02:57N 35°05' E 136°52'0 0.0
2018-Apr-16 02:30N 35°05' E 136°52'0 0.0
2018-Apr-16 01:57N 35°05' E 136°52'0 0.0
2018-Apr-16 01:30N 35°05' E 136°52'0 0.0
2018-Apr-16 01:00N 35°05' E 136°52'0 0.0
2018-Apr-16 00:27N 35°05' E 136°52'0 0.0
2018-Apr-15 23:57N 35°05' E 136°52'0 0.0
2018-Apr-15 23:30N 35°05' E 136°52'0 0.3
2018-Apr-15 23:00N 35°05' E 136°52'4 9.1
2018-Apr-15 22:31N 35°00' E 136°50'611.9
2018-Apr-15 22:00N 34°55' E 136°47'5 9.3
2018-Apr-15 21:30N 34°51' E 136°44'0 0.1
2018-Apr-15 21:00N 34°51' E 136°45'0 0.0
2018-Apr-15 20:30N 34°51' E 136°45'0 0.0
2018-Apr-15 20:00N 34°51' E 136°45'0 0.0
2018-Apr-15 19:30N 34°51' E 136°45'0 0.0
2018-Apr-15 19:00N 34°51' E 136°45'0 0.1
2018-Apr-15 18:30N 34°51' E 136°45'815.9
2018-Apr-15 18:00N 34°44' E 136°49'1018.5
2018-Apr-15 17:30N 34°37' E 136°57'1015.9
2018-Apr-15 16:52N 34°32' E 137°07'718.5
2018-Apr-15 16:30N 34°31' E 137°16'1317.0
2018-Apr-15 15:45N 34°30' E 137°31'416.5
2018-Apr-15 15:30N 34°30' E 137°36'916.3
2018-Apr-15 14:56N 34°30' E 137°47'716.1
2018-Apr-15 14:30N 34°30' E 137°56'915.8
2018-Apr-15 13:57N 34°30' E 138°06'815.5
2018-Apr-15 13:27N 34°30' E 138°16'814.9
2018-Apr-15 12:57N 34°31' E 138°25'714.6
2018-Apr-15 12:29N 34°31' E 138°33'714.7
2018-Apr-15 12:00N 34°31' E 138°42'714.5
2018-Apr-15 11:30N 34°31' E 138°50'714.1
2018-Apr-15 11:00N 34°32' E 138°59'815.9
2018-Apr-15 10:30N 34°37' E 139°07'917.2
2018-Apr-15 10:00N 34°43' E 139°14'1017.2
2018-Apr-15 09:25N 34°51' E 139°22'717.4
2018-Apr-15 09:00N 34°56' E 139°28'816.5
2018-Apr-15 08:31N 35°01' E 139°35'917.3
2018-Apr-15 08:01N 35°07' E 139°44'815.7
2018-Apr-15 07:30N 35°14' E 139°46'612.7
2018-Apr-15 07:00N 35°20' E 139°43'917.3
2018-Apr-15 06:30N 35°27' E 139°48'714.0
2018-Apr-15 06:00N 35°34' E 139°48'4 4.8
2018-Apr-15 05:09N 35°38' E 139°46'0 0.2
2018-Apr-15 04:57N 35°38' E 139°46'0 0.1
2018-Apr-15 04:15N 35°38' E 139°46'0 0.0
2018-Apr-15 03:57N 35°38' E 139°46'0 0.1
2018-Apr-15 03:03N 35°38' E 139°46'0 0.2
2018-Apr-15 02:45N 35°38' E 139°46'0 0.0
2018-Apr-15 01:36N 35°38' E 139°46'0 0.0
2018-Apr-15 01:18N 35°38' E 139°46'0 0.0
2018-Apr-15 00:54N 35°38' E 139°46'0 0.0
2018-Apr-15 00:30N 35°38' E 139°46'0 0.1
2018-Apr-15 00:00N 35°38' E 139°46'0 0.7
2018-Apr-14 23:30N 35°38' E 139°46'5 9.8
2018-Apr-14 23:01N 35°34' E 139°49'611.3
2018-Apr-14 22:30N 35°28' E 139°51'714.6
2018-Apr-14 22:00N 35°23' E 139°46'611.8
2018-Apr-14 21:31N 35°17' E 139°46'613.0
2018-Apr-14 21:00N 35°10' E 139°46'916.9
2018-Apr-14 20:30N 35°02' E 139°43'816.8
2018-Apr-14 20:00N 34°54' E 139°46'1013.1
2018-Apr-14 19:13N 34°53' E 139°58'315.5
2018-Apr-14 19:00N 34°55' E 140°02'1015.4
2018-Apr-14 18:22N 35°00' E 140°12'815.1
2018-Apr-14 17:51N 35°04' E 140°20'  
Track history (hours):
 
Tides and Currents Weather Stations Pressure Air Temp Water Temp Dewpoint Dewpoint Depression Visibility Wind Speed Wind Dir Waves Ship Positions

Kamikawa Maru

Last reported at 2018-Apr-24 10:30 UTC. Time now 2018-Apr-24 10:52 UTC.
Position N 35°26' E 139°46'.

Length 162 m; draft 6.8 m.

Type: Cargo ship. MMSI: 431101012.

Date/timePositionNaut miles runAvg speedWind from/ knotsBaromVisibWave heightAir tempDewpointWater temp
2018-Apr-24 10:30N 35°26' E 139°46'815.6
2018-Apr-24 10:00N 35°33' E 139°50'511.1
2018-Apr-24 09:30N 35°38' E 139°46'0 0.2
2018-Apr-24 09:00N 35°38' E 139°46'0 0.0
2018-Apr-24 07:51N 35°38' E 139°46'0 0.1
2018-Apr-24 07:30N 35°38' E 139°46'0 0.0
2018-Apr-24 06:54N 35°38' E 139°46'0 0.0
2018-Apr-23 23:45N 35°38' E 139°46'0 0.5
2018-Apr-23 23:30N 35°38' E 139°46'611.2
2018-Apr-23 23:01N 35°33' E 139°50'612.8
2018-Apr-23 22:31N 35°27' E 139°50'714.0
2018-Apr-23 22:01N 35°21' E 139°45'611.8
2018-Apr-23 21:31N 35°15' E 139°47'714.2
2018-Apr-23 21:00N 35°08' E 139°46'917.5
2018-Apr-23 20:30N 35°01' E 139°40'917.9
2018-Apr-23 20:00N 34°54' E 139°33'1017.9
2018-Apr-23 19:27N 34°51' E 139°22'919.4
2018-Apr-23 19:00N 34°44' E 139°16'1019.4
2018-Apr-23 18:29N 34°35' E 139°09'917.8
2018-Apr-23 18:00N 34°31' E 139°00'1218.5
2018-Apr-23 17:23N 34°30' E 138°46'718.8
2018-Apr-23 17:00N 34°29' E 138°38'918.8
2018-Apr-23 16:30N 34°29' E 138°26'1018.8
2018-Apr-23 16:00N 34°29' E 138°15'1019.0
2018-Apr-23 15:27N 34°29' E 138°02'1019.2
2018-Apr-23 14:57N 34°29' E 137°50'2119.6
2018-Apr-23 13:51N 34°31' E 137°25'819.6
2018-Apr-23 13:27N 34°32' E 137°15'2016.4
2018-Apr-23 12:16N 34°38' E 136°53'518.8
2018-Apr-23 12:00N 34°41' E 136°49'917.1
2018-Apr-23 11:30N 34°48' E 136°42'1 0.8
2018-Apr-23 10:52N 34°48' E 136°42'1 1.5
2018-Apr-23 10:28N 34°47' E 136°43'612.3
2018-Apr-23 10:00N 34°53' E 136°43'816.9
2018-Apr-23 09:30N 34°60' E 136°49'510.5
2018-Apr-23 09:01N 35°05' E 136°52'0 0.1
2018-Apr-23 08:28N 35°05' E 136°52'0 0.0
2018-Apr-23 07:55N 35°05' E 136°52'0 0.0
2018-Apr-23 07:28N 35°05' E 136°52'0 0.0
2018-Apr-23 06:55N 35°05' E 136°52'0 0.0
2018-Apr-23 06:28N 35°05' E 136°52'0 0.0
2018-Apr-23 05:58N 35°05' E 136°52'0 0.0
2018-Apr-23 05:28N 35°05' E 136°52'0 0.0
2018-Apr-23 04:55N 35°05' E 136°52'0 0.0
2018-Apr-23 04:25N 35°05' E 136°52'0 0.0
2018-Apr-23 03:58N 35°05' E 136°52'0 0.0
2018-Apr-23 03:28N 35°05' E 136°52'0 0.0
2018-Apr-23 02:55N 35°05' E 136°52'0 0.0
2018-Apr-23 02:28N 35°05' E 136°52'0 0.0
2018-Apr-23 01:58N 35°05' E 136°52'0 0.0
2018-Apr-23 01:28N 35°05' E 136°52'0 0.0
2018-Apr-23 00:58N 35°05' E 136°52'0 0.0
2018-Apr-23 00:25N 35°05' E 136°52'0 0.0
2018-Apr-22 23:55N 35°05' E 136°52'0 0.0
2018-Apr-22 23:25N 35°05' E 136°52'0 0.3
2018-Apr-22 23:00N 35°05' E 136°52'5 9.6
2018-Apr-22 22:30N 35°00' E 136°50'612.9
2018-Apr-22 22:00N 34°54' E 136°46'510.0
2018-Apr-22 21:29N 34°50' E 136°43'0 0.1
2018-Apr-22 20:59N 34°49' E 136°43'0 0.0
2018-Apr-22 20:29N 34°49' E 136°43'0 0.0
2018-Apr-22 19:58N 34°49' E 136°43'0 0.0
2018-Apr-22 19:29N 34°49' E 136°43'0 0.0
2018-Apr-22 18:58N 34°49' E 136°43'0 0.1
2018-Apr-22 18:29N 34°49' E 136°44'0 0.0
2018-Apr-22 17:59N 34°49' E 136°44'0 0.1
2018-Apr-22 17:28N 34°49' E 136°43'1 1.9
2018-Apr-22 17:00N 34°49' E 136°44'1019.2
2018-Apr-22 16:30N 34°41' E 136°51'917.7
2018-Apr-22 16:00N 34°35' E 136°59'612.4
2018-Apr-22 15:29N 34°32' E 137°06'918.8
2018-Apr-22 15:00N 34°31' E 137°17'1619.3
2018-Apr-22 14:12N 34°31' E 137°36'419.5
2018-Apr-22 13:59N 34°31' E 137°40'1019.0
2018-Apr-22 13:28N 34°31' E 137°53'919.0
2018-Apr-22 13:00N 34°31' E 138°03'918.9
2018-Apr-22 12:30N 34°31' E 138°15'1019.4
2018-Apr-22 11:59N 34°31' E 138°27'1018.9
2018-Apr-22 11:28N 34°32' E 138°39'918.6
2018-Apr-22 10:59N 34°32' E 138°50'817.5
2018-Apr-22 10:30N 34°33' E 138°60'1118.3
2018-Apr-22 09:56N 34°40' E 139°09'717.8
2018-Apr-22 09:30N 34°46' E 139°15'917.1
2018-Apr-22 09:00N 34°52' E 139°22'917.0
2018-Apr-22 08:30N 34°58' E 139°30'918.3
2018-Apr-22 08:00N 35°04' E 139°38'917.5
2018-Apr-22 07:30N 35°10' E 139°45'713.2
2018-Apr-22 07:00N 35°17' E 139°45'714.1
2018-Apr-22 06:30N 35°24' E 139°43'919.0
2018-Apr-22 06:00N 35°30' E 139°51'815.7
2018-Apr-22 05:31N 35°37' E 139°46'1 2.5
2018-Apr-22 05:00N 35°38' E 139°46'0 0.0
2018-Apr-22 04:27N 35°38' E 139°46'0 0.0
2018-Apr-22 03:15N 35°38' E 139°46'0 0.1
2018-Apr-22 02:51N 35°38' E 139°46'0 0.1
2018-Apr-22 02:27N 35°38' E 139°46'0 0.0
2018-Apr-22 01:45N 35°38' E 139°46'0 0.0
2018-Apr-22 01:27N 35°38' E 139°46'0 0.0
2018-Apr-22 00:57N 35°38' E 139°46'0 0.0
2018-Apr-21 23:54N 35°38' E 139°46'0 0.3
2018-Apr-21 23:30N 35°38' E 139°46'5 9.6
2018-Apr-21 23:00N 35°34' E 139°49'611.9
2018-Apr-21 22:30N 35°28' E 139°51'713.9
2018-Apr-21 22:00N 35°23' E 139°46'611.4
2018-Apr-21 21:31N 35°17' E 139°46'612.7
2018-Apr-21 21:00N 35°11' E 139°47'917.2
2018-Apr-21 20:30N 35°03' E 139°44'816.0
2018-Apr-21 20:00N 34°55' E 139°43'915.6
2018-Apr-21 19:26N 34°52' E 139°53'817.6
2018-Apr-21 19:01N 34°55' E 140°02'1017.2
2018-Apr-21 18:27N 34°59' E 140°12'817.0
2018-Apr-21 18:00N 35°03' E 140°20'1116.4
2018-Apr-21 17:19N 35°09' E 140°31'1116.3
2018-Apr-21 16:38N 35°19' E 140°39'217.1
2018-Apr-21 16:30N 35°21' E 140°40'  
2018-Apr-18 15:14N 40°25' E 141°57'719.1
2018-Apr-18 14:51N 40°18' E 141°58'819.1
2018-Apr-18 14:26N 40°10' E 142°01'32313.2
2018-Apr-17 13:59N 34°59' E 140°12'1019.7
2018-Apr-17 13:29N 34°54' E 140°02'1018.5
2018-Apr-17 12:57N 34°52' E 139°50'817.9
2018-Apr-17 12:30N 34°58' E 139°43'1019.3
2018-Apr-17 12:00N 35°07' E 139°45'816.3
2018-Apr-17 11:30N 35°15' E 139°46'713.1
2018-Apr-17 11:00N 35°21' E 139°42'918.2
2018-Apr-17 10:30N 35°28' E 139°49'714.6
2018-Apr-17 10:00N 35°35' E 139°47'3 4.8
2018-Apr-17 09:23N 35°38' E 139°46'0 0.0
2018-Apr-17 08:53N 35°38' E 139°46'0 0.0
2018-Apr-17 08:11N 35°38' E 139°46'0 0.0
2018-Apr-17 07:53N 35°38' E 139°46'0 0.0
2018-Apr-17 07:17N 35°38' E 139°46'0 0.0
2018-Apr-17 06:53N 35°38' E 139°46'0 0.0
2018-Apr-17 06:29N 35°38' E 139°46'0 0.0
2018-Apr-17 05:53N 35°38' E 139°46'0 0.0
2018-Apr-17 05:29N 35°38' E 139°46'0 0.0
2018-Apr-17 04:59N 35°38' E 139°46'0 0.0
2018-Apr-17 04:29N 35°38' E 139°46'0 0.0
2018-Apr-17 03:47N 35°38' E 139°46'0 0.1
2018-Apr-17 03:23N 35°38' E 139°46'0 0.1
2018-Apr-17 02:59N 35°38' E 139°46'0 0.1
2018-Apr-17 02:29N 35°38' E 139°46'0 0.1
2018-Apr-17 01:35N 35°38' E 139°46'0 0.1
2018-Apr-17 01:05N 35°38' E 139°46'0 0.0
2018-Apr-17 00:05N 35°38' E 139°46'0 0.5
2018-Apr-16 23:59N 35°38' E 139°46'0 0.5
2018-Apr-16 23:30N 35°38' E 139°46'611.3
2018-Apr-16 23:00N 35°33' E 139°50'714.3
2018-Apr-16 22:30N 35°26' E 139°49'713.5
2018-Apr-16 22:00N 35°20' E 139°45'611.5
2018-Apr-16 21:30N 35°15' E 139°47'714.7
2018-Apr-16 21:00N 35°08' E 139°44'815.4
2018-Apr-16 20:31N 35°03' E 139°38'918.1
2018-Apr-16 20:00N 34°56' E 139°30'1018.0
2018-Apr-16 19:28N 34°50' E 139°21'1018.5
2018-Apr-16 18:57N 34°43' E 139°13'818.2
2018-Apr-16 18:31N 34°37' E 139°06'917.4
2018-Apr-16 18:00N 34°31' E 138°58'1017.0
2018-Apr-16 17:24N 34°28' E 138°46'717.9
2018-Apr-16 16:59N 34°27' E 138°37'917.7
2018-Apr-16 16:30N 34°27' E 138°27'917.9
2018-Apr-16 16:00N 34°27' E 138°16'1618.4
2018-Apr-16 15:08N 34°29' E 137°57'318.5
2018-Apr-16 15:00N 34°29' E 137°54'2818.8
2018-Apr-16 13:29N 34°29' E 137°19'1119.7
2018-Apr-16 12:57N 34°30' E 137°06'716.7
2018-Apr-16 12:30N 34°34' E 136°59'1019.4
2018-Apr-16 12:00N 34°40' E 136°50'1019.6
2018-Apr-16 11:30N 34°49' E 136°45'2 3.9
2018-Apr-16 10:59N 34°51' E 136°44'0 0.0
2018-Apr-16 10:29N 34°51' E 136°44'0 0.0
2018-Apr-16 09:59N 34°51' E 136°44'0 0.0
2018-Apr-16 09:29N 34°51' E 136°44'0 0.0
2018-Apr-16 08:59N 34°51' E 136°44'0 0.2
2018-Apr-16 08:30N 34°51' E 136°44'816.1
2018-Apr-16 08:00N 34°58' E 136°48'714.4
2018-Apr-16 07:31N 35°04' E 136°52'0 0.3
2018-Apr-16 06:57N 35°05' E 136°52'0 0.0
2018-Apr-16 06:27N 35°05' E 136°52'0 0.0
2018-Apr-16 06:00N 35°05' E 136°52'0 0.0
2018-Apr-16 05:27N 35°05' E 136°52'0 0.0
2018-Apr-16 04:57N 35°05' E 136°52'0 0.0
2018-Apr-16 04:27N 35°05' E 136°52'0 0.0
2018-Apr-16 03:57N 35°05' E 136°52'0 0.0
2018-Apr-16 03:27N 35°05' E 136°52'0 0.0
2018-Apr-16 02:57N 35°05' E 136°52'0 0.0
2018-Apr-16 02:30N 35°05' E 136°52'0 0.0
2018-Apr-16 01:57N 35°05' E 136°52'0 0.0
2018-Apr-16 01:30N 35°05' E 136°52'0 0.0
2018-Apr-16 01:00N 35°05' E 136°52'0 0.0
2018-Apr-16 00:27N 35°05' E 136°52'0 0.0
2018-Apr-15 23:57N 35°05' E 136°52'0 0.0
2018-Apr-15 23:30N 35°05' E 136°52'0 0.3
2018-Apr-15 23:00N 35°05' E 136°52'4 9.1
2018-Apr-15 22:31N 35°00' E 136°50'611.9
2018-Apr-15 22:00N 34°55' E 136°47'5 9.3
2018-Apr-15 21:30N 34°51' E 136°44'0 0.1
2018-Apr-15 21:00N 34°51' E 136°45'0 0.0
2018-Apr-15 20:30N 34°51' E 136°45'0 0.0
2018-Apr-15 20:00N 34°51' E 136°45'0 0.0
2018-Apr-15 19:30N 34°51' E 136°45'0 0.0
2018-Apr-15 19:00N 34°51' E 136°45'0 0.1
2018-Apr-15 18:30N 34°51' E 136°45'815.9
2018-Apr-15 18:00N 34°44' E 136°49'1018.5
2018-Apr-15 17:30N 34°37' E 136°57'1015.9
2018-Apr-15 16:52N 34°32' E 137°07'718.5
2018-Apr-15 16:30N 34°31' E 137°16'1317.0
2018-Apr-15 15:45N 34°30' E 137°31'416.5
2018-Apr-15 15:30N 34°30' E 137°36'916.3
2018-Apr-15 14:56N 34°30' E 137°47'716.1
2018-Apr-15 14:30N 34°30' E 137°56'915.8
2018-Apr-15 13:57N 34°30' E 138°06'815.5
2018-Apr-15 13:27N 34°30' E 138°16'814.9
2018-Apr-15 12:57N 34°31' E 138°25'714.6
2018-Apr-15 12:29N 34°31' E 138°33'714.7
2018-Apr-15 12:00N 34°31' E 138°42'714.5
2018-Apr-15 11:30N 34°31' E 138°50'714.1
2018-Apr-15 11:00N 34°32' E 138°59'815.9
2018-Apr-15 10:30N 34°37' E 139°07'917.2
2018-Apr-15 10:00N 34°43' E 139°14'1017.2
2018-Apr-15 09:25N 34°51' E 139°22'717.4
2018-Apr-15 09:00N 34°56' E 139°28'816.5
2018-Apr-15 08:31N 35°01' E 139°35'917.3
2018-Apr-15 08:01N 35°07' E 139°44'815.7
2018-Apr-15 07:30N 35°14' E 139°46'612.7
2018-Apr-15 07:00N 35°20' E 139°43'917.3
2018-Apr-15 06:30N 35°27' E 139°48'714.0
2018-Apr-15 06:00N 35°34' E 139°48'4 4.8
2018-Apr-15 05:09N 35°38' E 139°46'0 0.2
2018-Apr-15 04:57N 35°38' E 139°46'0 0.1
2018-Apr-15 04:15N 35°38' E 139°46'0 0.0
2018-Apr-15 03:57N 35°38' E 139°46'0 0.1
2018-Apr-15 03:03N 35°38' E 139°46'0 0.2
2018-Apr-15 02:45N 35°38' E 139°46'0 0.0
2018-Apr-15 01:36N 35°38' E 139°46'0 0.0
2018-Apr-15 01:18N 35°38' E 139°46'0 0.0
2018-Apr-15 00:54N 35°38' E 139°46'0 0.0
2018-Apr-15 00:30N 35°38' E 139°46'0 0.1
2018-Apr-15 00:00N 35°38' E 139°46'0 0.7
2018-Apr-14 23:30N 35°38' E 139°46'5 9.8
2018-Apr-14 23:01N 35°34' E 139°49'611.3
2018-Apr-14 22:30N 35°28' E 139°51'714.6
2018-Apr-14 22:00N 35°23' E 139°46'611.8
2018-Apr-14 21:31N 35°17' E 139°46'613.0
2018-Apr-14 21:00N 35°10' E 139°46'916.9
2018-Apr-14 20:30N 35°02' E 139°43'816.8
2018-Apr-14 20:00N 34°54' E 139°46'1013.1
2018-Apr-14 19:13N 34°53' E 139°58'315.5
2018-Apr-14 19:00N 34°55' E 140°02'1015.4
2018-Apr-14 18:22N 35°00' E 140°12'815.1
2018-Apr-14 17:51N 35°04' E 140°20'  

Dump ship's entire track history